createdAt,value
2023-05-24T00:02:08.396Z,100819.66
2023-05-24T00:07:10.074Z,100818.91
2023-05-24T00:12:11.731Z,100816.97
2023-05-24T00:17:13.095Z,100823.81
2023-05-24T00:22:14.503Z,100822.91
2023-05-24T00:27:16.021Z,100820.56
2023-05-24T00:32:17.479Z,100821.22
2023-05-24T00:37:18.912Z,100823.66
2023-05-24T00:42:20.378Z,100821.84
2023-05-24T00:47:22.464Z,100821.22
2023-05-24T00:52:24.104Z,100830.91
2023-05-24T00:57:25.644Z,100835.16
2023-05-24T01:02:27.185Z,100823.53
2023-05-24T01:07:47.386Z,100828.97
2023-05-24T01:13:26.434Z,100831.06
2023-05-24T01:18:39.201Z,100826.53
2023-05-24T01:24:05.766Z,100818.78
2023-05-24T01:29:08.279Z,100825.66
2023-05-24T01:34:09.656Z,100815.59
2023-05-24T01:39:11.202Z,100817.63
2023-05-24T01:44:34.637Z,100814.44
2023-05-24T01:49:42.256Z,100820.00
2023-05-24T01:54:47.729Z,100823.91
2023-05-24T01:59:50.904Z,100817.00
2023-05-24T02:04:52.276Z,100821.09
2023-05-24T02:09:53.650Z,100822.31
2023-05-24T02:14:57.134Z,100819.59
2023-05-24T02:20:00.143Z,100823.19
2023-05-24T02:25:01.589Z,100817.13
2023-05-24T02:30:03.254Z,100813.47
2023-05-24T02:35:05.263Z,100817.16
2023-05-24T02:40:07.887Z,100820.53
2023-05-24T02:45:09.566Z,100821.34
2023-05-24T02:50:11.015Z,100824.44
2023-05-24T02:55:12.386Z,100823.28
2023-05-24T03:00:14.916Z,100828.84
2023-05-24T03:05:17.451Z,100825.66
2023-05-24T03:10:18.832Z,100836.13
2023-05-24T03:15:20.342Z,100832.94
2023-05-24T03:20:23.489Z,100830.09
2023-05-24T03:25:24.924Z,100825.91
2023-05-24T03:30:26.314Z,100821.34
2023-05-24T03:35:27.721Z,100814.97
2023-05-24T03:40:32.293Z,100811.59
2023-05-24T03:45:39.064Z,100816.97
2023-05-24T03:50:41.436Z,100825.75
2023-05-24T03:55:43.073Z,100828.09
2023-05-24T04:00:44.631Z,100838.53
2023-05-24T04:05:46.996Z,100841.25
2023-05-24T04:10:48.398Z,100848.97
2023-05-24T04:15:49.777Z,100847.28
2023-05-24T04:20:51.431Z,100849.13
2023-05-24T04:25:52.818Z,100849.97
2023-05-24T04:30:55.991Z,100852.84
2023-05-24T04:35:58.304Z,100861.75
2023-05-24T04:41:00.417Z,100858.72
2023-05-24T04:46:01.913Z,100863.75
2023-05-24T04:51:03.499Z,100863.09
2023-05-24T04:56:04.962Z,100868.97
2023-05-24T05:01:06.856Z,100855.19
2023-05-24T05:06:08.325Z,100863.78
2023-05-24T05:11:09.915Z,100863.09
2023-05-24T05:16:11.785Z,100885.81
2023-05-24T05:21:13.224Z,100885.47
2023-05-24T05:26:14.620Z,100872.00
2023-05-24T05:31:16.284Z,100878.75
2023-05-24T05:36:18.257Z,100887.97
2023-05-24T05:41:19.696Z,100885.59
2023-05-24T05:46:22.095Z,100901.28
2023-05-24T05:51:23.513Z,100902.25
2023-05-24T05:56:24.953Z,100908.13
2023-05-24T06:01:26.350Z,100901.88
2023-05-24T06:06:27.722Z,100914.53
2023-05-24T06:11:29.149Z,100922.25
2023-05-24T06:16:32.476Z,100919.84
2023-05-24T06:21:34.053Z,100929.91
2023-05-24T06:26:37.289Z,100916.25
2023-05-24T06:31:39.241Z,100920.13
2023-05-24T06:36:43.670Z,100923.38
2023-05-24T06:41:46.122Z,100916.72
2023-05-24T06:46:47.904Z,100917.88
2023-05-24T06:51:49.521Z,100912.53
2023-05-24T06:56:51.392Z,100911.75
2023-05-24T07:01:57.869Z,100912.34
2023-05-24T07:07:00.220Z,100924.19
2023-05-24T07:12:02.528Z,100927.91
2023-05-24T07:17:04.556Z,100933.06
2023-05-24T07:22:06.061Z,100944.84
2023-05-24T07:27:07.550Z,100952.34
2023-05-24T07:32:08.989Z,100955.22
2023-05-24T07:37:11.876Z,100954.38
2023-05-24T07:42:13.301Z,100944.81
2023-05-24T07:47:14.731Z,100962.56
2023-05-24T07:52:16.098Z,100947.38
2023-05-24T07:57:18.914Z,100952.31
2023-05-24T08:02:20.408Z,100964.69
2023-05-24T08:07:22.348Z,100961.16
2023-05-24T08:12:25.841Z,100964.03
2023-05-24T08:17:27.648Z,100971.03
2023-05-24T08:22:29.059Z,100974.03
2023-05-24T08:27:30.565Z,100965.38
2023-05-24T08:37:33.738Z,100952.25
2023-05-24T08:42:38.384Z,100955.16
2023-05-24T08:47:40.539Z,100955.25
2023-05-24T08:52:42.471Z,100949.97
2023-05-24T08:57:45.754Z,100949.88
2023-05-24T09:02:47.506Z,100944.72
2023-05-24T09:07:51.058Z,100934.53
2023-05-24T09:12:55.878Z,100930.34
2023-05-24T09:17:57.367Z,100929.38
2023-05-24T09:22:59.206Z,100931.75
2023-05-24T09:28:06.390Z,100935.00
2023-05-24T09:33:08.413Z,100934.53
2023-05-24T09:38:19.506Z,100921.50
2023-05-24T09:43:20.902Z,100911.56
2023-05-24T09:48:22.522Z,100919.97
2023-05-24T09:53:23.933Z,100913.03
2023-05-24T09:58:30.983Z,100911.84
2023-05-24T10:03:32.418Z,100911.03
2023-05-24T10:08:35.902Z,100911.84
2023-05-24T10:13:37.857Z,100912.25
2023-05-24T10:18:39.728Z,100913.94
2023-05-24T10:23:43.860Z,100900.78
2023-05-24T10:28:48.955Z,100903.25
2023-05-24T10:33:51.951Z,100896.53
2023-05-24T10:38:55.535Z,100895.94
2023-05-24T10:44:09.468Z,100890.69
2023-05-24T10:49:13.722Z,100878.28
2023-05-24T10:54:17.622Z,100874.09
2023-05-24T10:59:37.810Z,100877.09
2023-05-24T11:04:43.408Z,100863.97
2023-05-24T11:09:52.693Z,100868.75
2023-05-24T11:14:54.298Z,100864.75
2023-05-24T11:19:55.804Z,100865.34
2023-05-24T11:24:58.078Z,100862.97
2023-05-24T11:30:00.950Z,100853.31
2023-05-24T11:35:04.100Z,100860.56
2023-05-24T11:40:09.865Z,100863.88
2023-05-24T11:45:11.624Z,100869.97
2023-05-24T11:50:16.573Z,100872.72
2023-05-24T11:55:24.464Z,100862.78
2023-05-24T12:00:26.983Z,100866.13
2023-05-24T12:05:31.756Z,100860.09
2023-05-24T12:10:34.946Z,100856.34
2023-05-24T12:15:36.782Z,100856.94
2023-05-24T12:20:38.984Z,100857.41
2023-05-24T12:25:40.689Z,100850.59
2023-05-24T12:30:44.678Z,100853.88
2023-05-24T12:35:47.199Z,100852.44
2023-05-24T12:41:00.010Z,100845.47
2023-05-24T12:46:11.313Z,100838.06
2023-05-24T12:51:12.707Z,100842.78
2023-05-24T12:56:14.154Z,100829.31
2023-05-24T13:01:15.603Z,100833.38
2023-05-24T13:06:17.539Z,100828.31
2023-05-24T13:11:19.030Z,100834.50
2023-05-24T13:16:20.461Z,100823.84
2023-05-24T13:21:21.938Z,100824.03
2023-05-24T13:26:24.358Z,100810.66
2023-05-24T13:31:26.805Z,100817.41
2023-05-24T13:36:28.278Z,100804.00
2023-05-24T13:41:30.347Z,100809.66
2023-05-24T13:46:32.006Z,100807.00
2023-05-24T13:51:33.535Z,100801.81
2023-05-24T13:56:35.683Z,100803.72
2023-05-24T14:01:40.713Z,100795.75
2023-05-24T14:06:42.221Z,100802.13
2023-05-24T14:11:45.325Z,100805.38
2023-05-24T14:16:51.545Z,100801.84
2023-05-24T14:21:53.180Z,100806.50
2023-05-24T14:26:54.565Z,100806.75
2023-05-24T14:31:56.047Z,100805.28
2023-05-24T14:36:57.470Z,100798.53
2023-05-24T14:41:58.864Z,100806.41
2023-05-24T14:47:00.511Z,100796.66
2023-05-24T14:52:03.035Z,100796.56
2023-05-24T14:57:04.886Z,100783.31
2023-05-24T15:02:06.547Z,100783.19
2023-05-24T15:07:07.986Z,100783.63
2023-05-24T15:12:09.564Z,100781.72
2023-05-24T15:17:11.734Z,100768.50
2023-05-24T15:22:13.134Z,100783.94
2023-05-24T15:27:14.511Z,100775.97
2023-05-24T15:32:16.171Z,100779.31
2023-05-24T15:37:19.493Z,100769.09
2023-05-24T15:42:21.694Z,100778.41
2023-05-24T15:47:27.728Z,100781.13
2023-05-24T15:52:29.305Z,100779.97
2023-05-24T15:57:31.584Z,100777.00
2023-05-24T16:02:33.041Z,100778.72
2023-05-24T16:07:34.552Z,100776.13
2023-05-24T16:12:35.935Z,100775.44
2023-05-24T16:17:37.341Z,100776.69
2023-05-24T16:22:48.053Z,100766.63
2023-05-24T16:27:49.462Z,100773.38
2023-05-24T16:32:50.857Z,100765.91
2023-05-24T16:37:52.290Z,100766.59
2023-05-24T16:42:54.339Z,100768.06
2023-05-24T16:47:55.776Z,100763.88
2023-05-24T16:52:57.214Z,100760.63
2023-05-24T16:57:58.622Z,100759.41
2023-05-24T17:03:00.407Z,100760.44
2023-05-24T17:08:02.054Z,100768.25
2023-05-24T17:13:03.611Z,100760.72
2023-05-24T17:18:05.726Z,100775.66
2023-05-24T17:23:07.177Z,100778.63
2023-05-24T17:28:08.619Z,100768.59
2023-05-24T17:33:10.205Z,100772.81
2023-05-24T17:38:11.777Z,100761.25
2023-05-24T17:43:13.555Z,100770.69
2023-05-24T17:48:14.958Z,100779.88
2023-05-24T17:53:30.397Z,100784.75
2023-05-24T17:58:36.091Z,100788.13
2023-05-24T18:03:40.592Z,100786.66
2023-05-24T18:08:43.570Z,100797.47
2023-05-24T18:13:45.655Z,100801.56
2023-05-24T18:18:47.077Z,100802.06
2023-05-24T18:23:48.604Z,100803.03
2023-05-24T18:28:49.985Z,100809.22
2023-05-24T18:33:51.438Z,100809.75
2023-05-24T18:38:52.925Z,100818.22
2023-05-24T18:43:54.300Z,100811.91
2023-05-24T18:48:58.508Z,100820.22
2023-05-24T18:53:59.957Z,100824.75
2023-05-24T18:59:01.400Z,100823.56
2023-05-24T19:04:02.785Z,100837.41
2023-05-24T19:09:04.267Z,100836.78
2023-05-24T19:14:05.828Z,100850.75
2023-05-24T19:19:07.328Z,100852.59
2023-05-24T19:24:08.928Z,100865.69
2023-05-24T19:29:10.391Z,100871.47
2023-05-24T19:34:12.394Z,100878.25
2023-05-24T19:39:13.926Z,100875.91
2023-05-24T19:44:15.301Z,100882.94
2023-05-24T19:49:16.800Z,100894.72
2023-05-24T19:54:18.337Z,100898.56
2023-05-24T19:59:19.816Z,100897.59
2023-05-24T20:04:21.910Z,100905.69
2023-05-24T20:09:23.381Z,100905.63
2023-05-24T20:14:24.916Z,100909.69
2023-05-24T20:19:27.117Z,100909.81
2023-05-24T20:24:28.642Z,100913.50
2023-05-24T20:29:30.039Z,100917.34
2023-05-24T20:34:31.914Z,100930.56
2023-05-24T20:39:33.477Z,100923.19
2023-05-24T20:44:34.933Z,100923.31
2023-05-24T20:49:36.395Z,100925.50
2023-05-24T20:54:37.887Z,100932.50
2023-05-24T20:59:39.386Z,100925.50
2023-05-24T21:04:40.812Z,100934.38
2023-05-24T21:09:42.164Z,100929.97
2023-05-24T21:14:44.516Z,100938.38
2023-05-24T21:19:45.916Z,100948.28
2023-05-24T21:24:47.458Z,100941.56
2023-05-24T21:29:48.849Z,100949.94
2023-05-24T21:34:50.250Z,100951.50
2023-05-24T21:39:51.661Z,100949.41
2023-05-24T21:44:53.049Z,100948.84
2023-05-24T21:49:54.922Z,100953.97
2023-05-24T21:54:56.319Z,100952.91
2023-05-24T21:59:57.768Z,100956.63
2023-05-24T22:04:59.190Z,100967.50
2023-05-24T22:10:00.598Z,100967.19
2023-05-24T22:15:02.416Z,100969.72
2023-05-24T22:20:05.982Z,100979.38
2023-05-24T22:25:08.675Z,100977.50
2023-05-24T22:30:11.647Z,100972.47
2023-05-24T22:35:13.041Z,100978.03
2023-05-24T22:40:14.549Z,100979.44
2023-05-24T22:45:16.266Z,100979.78
2023-05-24T22:50:17.774Z,100978.09
2023-05-24T22:55:19.168Z,100978.28
2023-05-24T23:00:20.770Z,100982.34
2023-05-24T23:05:23.925Z,100988.75
2023-05-24T23:10:25.457Z,100996.38
2023-05-24T23:15:28.860Z,100991.47
2023-05-24T23:20:30.670Z,100984.75
2023-05-24T23:25:32.292Z,100993.41
2023-05-24T23:30:33.648Z,101001.31
2023-05-24T23:35:35.195Z,100997.81
2023-05-24T23:40:36.768Z,100996.66
2023-05-24T23:45:38.334Z,101001.38
2023-05-24T23:50:53.106Z,101006.81
2023-05-24T23:55:55.218Z,101001.97
